createdAt,value
2019-05-22T00:04:58.187Z,99537.88
2019-05-22T00:10:03.913Z,99535.63
2019-05-22T00:15:08.474Z,99531.41
2019-05-22T00:20:14.438Z,99539.55
2019-05-22T00:25:26.675Z,99545.20
2019-05-22T00:30:33.567Z,99550.11
2019-05-22T00:35:38.653Z,99551.05
2019-05-22T00:40:43.078Z,99555.59
2019-05-22T00:45:49.679Z,99560.41
2019-05-22T00:51:05.111Z,99564.20
2019-05-22T00:56:28.975Z,99564.45
2019-05-22T01:01:38.896Z,99570.05
2019-05-22T01:06:46.779Z,99565.44
2019-05-22T01:11:52.482Z,99566.42
2019-05-22T01:16:56.843Z,99574.41
2019-05-22T01:22:02.228Z,99571.41
2019-05-22T01:27:08.249Z,99570.71
2019-05-22T01:32:16.087Z,99568.39
2019-05-22T01:37:20.634Z,99567.77
2019-05-22T01:42:30.404Z,99566.87
2019-05-22T01:48:02.642Z,99568.20
2019-05-22T01:53:08.407Z,99584.44
2019-05-22T01:58:12.963Z,99591.46
2019-05-22T02:03:17.909Z,99596.18
2019-05-22T02:08:24.034Z,99592.08
2019-05-22T02:13:42.370Z,99599.98
2019-05-22T02:18:48.467Z,99601.45
2019-05-22T02:23:52.882Z,99610.08
2019-05-22T02:28:58.902Z,99610.84
2019-05-22T02:34:05.186Z,99614.55
2019-05-22T02:39:15.665Z,99615.19
2019-05-22T02:44:21.125Z,99620.22
2019-05-22T02:49:26.459Z,99623.55
2019-05-22T02:54:32.679Z,99632.47
2019-05-22T02:59:37.507Z,99639.28
2019-05-22T03:04:57.655Z,99646.19
2019-05-22T03:10:03.604Z,99655.00
2019-05-22T03:15:11.085Z,99657.66
2019-05-22T03:20:18.918Z,99658.09
2019-05-22T03:25:23.335Z,99653.77
2019-05-22T03:30:32.773Z,99657.56
2019-05-22T03:35:43.549Z,99655.31
2019-05-22T03:40:51.268Z,99659.64
2019-05-22T03:45:56.490Z,99672.52
2019-05-22T03:51:13.596Z,99665.31
2019-05-22T03:56:18.291Z,99663.30
2019-05-22T04:01:24.228Z,99663.34
2019-05-22T04:06:28.568Z,99666.41
2019-05-22T04:11:41.909Z,99670.36
2019-05-22T04:16:47.424Z,99684.70
2019-05-22T04:21:52.049Z,99694.68
2019-05-22T04:26:56.763Z,99694.43
2019-05-22T04:32:05.735Z,99694.42
2019-05-22T04:37:10.790Z,99699.17
2019-05-22T04:42:17.471Z,99705.59
2019-05-22T04:47:21.966Z,99706.48
2019-05-22T04:52:26.611Z,99703.67
2019-05-22T04:57:32.147Z,99707.31
2019-05-22T05:02:37.248Z,99716.85
2019-05-22T05:07:41.807Z,99716.95
2019-05-22T05:12:47.099Z,99728.56
2019-05-22T05:17:51.551Z,99740.41
2019-05-22T05:22:56.031Z,99748.44
2019-05-22T05:28:02.468Z,99753.79
2019-05-22T05:33:07.540Z,99759.89
2019-05-22T05:38:12.760Z,99759.91
2019-05-22T05:43:17.749Z,99761.11
2019-05-22T05:48:22.646Z,99759.91
2019-05-22T05:53:29.145Z,99757.36
2019-05-22T05:58:34.674Z,99754.94
2019-05-22T06:03:41.456Z,99761.12
2019-05-22T06:08:48.070Z,99752.83
2019-05-22T06:13:52.608Z,99758.88
2019-05-22T06:18:58.415Z,99781.14
2019-05-22T06:24:23.888Z,99786.13
2019-05-22T06:29:57.252Z,99783.65
2019-05-22T06:35:03.959Z,99780.55
2019-05-22T06:40:10.428Z,99784.62
2019-05-22T06:45:14.799Z,99783.79
2019-05-22T06:50:19.579Z,99796.92
2019-05-22T06:55:24.105Z,99793.11
2019-05-22T07:00:29.565Z,99803.73
2019-05-22T07:05:34.002Z,99808.30
2019-05-22T07:10:39.131Z,99822.42
2019-05-22T07:15:44.298Z,99818.87
2019-05-22T07:20:50.545Z,99820.00
2019-05-22T07:25:54.990Z,99824.73
2019-05-22T07:30:59.447Z,99837.09
2019-05-22T07:36:16.507Z,99837.62
2019-05-22T07:41:10.506Z,99840.30
2019-05-22T07:46:15.297Z,99849.45
2019-05-22T07:51:20.196Z,99849.72
2019-05-22T07:56:24.820Z,99859.48
2019-05-22T08:01:30.202Z,99867.31
2019-05-22T08:06:34.792Z,99871.23
2019-05-22T08:11:39.778Z,99872.10
2019-05-22T08:16:44.313Z,99869.65
2019-05-22T08:21:48.958Z,99871.64
2019-05-22T08:26:55.155Z,99882.64
2019-05-22T08:32:00.709Z,99885.09
2019-05-22T08:37:08.375Z,99890.33
2019-05-22T08:42:15.023Z,99890.60
2019-05-22T08:47:22.923Z,99904.48
2019-05-22T08:52:28.795Z,99893.06
2019-05-22T08:57:35.447Z,99917.84
2019-05-22T09:02:40.446Z,99927.47
2019-05-22T09:07:45.696Z,99940.96
2019-05-22T09:12:50.153Z,99951.62
2019-05-22T09:17:54.787Z,99965.17
2019-05-22T09:22:59.785Z,99973.30
2019-05-22T09:28:04.494Z,99972.97
2019-05-22T09:33:10.635Z,99979.05
2019-05-22T09:38:15.154Z,99980.71
2019-05-22T09:43:22.833Z,99986.58
2019-05-22T09:48:29.265Z,99992.02
2019-05-22T09:53:34.971Z,99992.02
2019-05-22T09:58:39.412Z,99995.16
2019-05-22T10:03:44.053Z,99998.23
2019-05-22T10:08:48.456Z,100000.01
2019-05-22T10:13:52.976Z,99996.09
2019-05-22T10:18:57.377Z,100010.76
2019-05-22T10:24:03.876Z,100015.11
2019-05-22T10:29:08.403Z,100019.85
2019-05-22T10:34:12.974Z,100019.51
2019-05-22T10:39:17.444Z,100033.77
2019-05-22T10:44:21.872Z,100034.16
2019-05-22T10:49:26.257Z,100047.44
2019-05-22T10:54:30.633Z,100048.41
2019-05-22T10:59:35.203Z,100048.94
2019-05-22T11:04:39.845Z,100056.44
2019-05-22T11:09:44.197Z,100063.13
2019-05-22T11:14:48.560Z,100060.19
2019-05-22T11:19:53.074Z,100060.78
2019-05-22T11:24:57.451Z,100066.77
2019-05-22T11:30:01.845Z,100058.64
2019-05-22T11:35:08.860Z,100065.84
2019-05-22T11:40:15.195Z,100060.91
2019-05-22T11:45:20.677Z,100070.39
2019-05-22T11:50:25.569Z,100064.68
2019-05-22T11:55:44.190Z,100071.85
2019-05-22T12:00:36.880Z,100058.95
2019-05-22T12:05:41.405Z,100058.95
2019-05-22T12:10:47.021Z,100075.44
2019-05-22T12:15:52.474Z,100082.78
2019-05-22T12:20:57.206Z,100088.17
2019-05-22T12:26:01.630Z,100084.39
2019-05-22T12:31:07.007Z,100088.59
2019-05-22T12:36:12.291Z,100089.19
2019-05-22T12:41:19.009Z,100087.77
2019-05-22T12:46:23.622Z,100087.94
2019-05-22T12:51:28.524Z,100088.55
2019-05-22T12:56:33.063Z,100094.41
2019-05-22T13:01:38.781Z,100105.84
2019-05-22T13:06:43.210Z,100105.59
2019-05-22T13:11:47.726Z,100100.04
2019-05-22T13:16:52.685Z,100102.45
2019-05-22T13:21:58.662Z,100100.95
2019-05-22T13:27:03.069Z,100102.48
2019-05-22T13:32:07.748Z,100103.61
2019-05-22T13:37:12.166Z,100102.08
2019-05-22T13:42:16.554Z,100116.73
2019-05-22T13:47:21.766Z,100117.63
2019-05-22T13:52:26.292Z,100120.31
2019-05-22T13:57:31.418Z,100124.48
2019-05-22T14:02:36.068Z,100132.18
2019-05-22T14:07:40.449Z,100138.33
2019-05-22T14:12:46.323Z,100135.00
2019-05-22T14:17:50.662Z,100136.52
2019-05-22T14:22:55.279Z,100136.86
2019-05-22T14:27:59.691Z,100144.31
2019-05-22T14:33:05.410Z,100146.48
2019-05-22T14:38:10.253Z,100149.42
2019-05-22T14:43:15.812Z,100150.55
2019-05-22T14:48:20.569Z,100155.82
2019-05-22T14:53:25.312Z,100155.93
2019-05-22T14:58:30.020Z,100156.62
2019-05-22T15:03:34.863Z,100158.13
2019-05-22T15:08:39.233Z,100164.77
2019-05-22T15:13:43.792Z,100159.61
2019-05-22T15:18:48.142Z,100163.13
2019-05-22T15:23:52.794Z,100157.76
2019-05-22T15:28:57.342Z,100162.83
2019-05-22T15:34:02.867Z,100171.71
2019-05-22T15:39:08.939Z,100168.97
2019-05-22T15:44:13.800Z,100169.54
2019-05-22T15:49:19.567Z,100175.67
2019-05-22T15:54:25.012Z,100178.80
2019-05-22T15:59:30.221Z,100190.42
2019-05-22T16:04:35.472Z,100184.14
2019-05-22T16:09:40.904Z,100193.37
2019-05-22T16:14:45.452Z,100197.81
2019-05-22T16:19:50.450Z,100197.30
2019-05-22T16:24:54.890Z,100197.70
2019-05-22T16:30:01.176Z,100208.72
2019-05-22T16:35:06.990Z,100217.98
2019-05-22T16:40:12.342Z,100213.31
2019-05-22T16:45:16.862Z,100211.02
2019-05-22T16:50:23.025Z,100222.36
2019-05-22T16:55:28.323Z,100230.42
2019-05-22T17:00:33.282Z,100232.54
2019-05-22T17:05:38.896Z,100227.09
2019-05-22T17:10:44.397Z,100238.91
2019-05-22T17:15:48.819Z,100245.33
2019-05-22T17:20:53.312Z,100245.14
2019-05-22T17:25:58.718Z,100250.90
2019-05-22T17:31:03.285Z,100254.17
2019-05-22T17:36:08.010Z,100259.75
2019-05-22T17:41:12.801Z,100253.92
2019-05-22T17:46:17.777Z,100257.00
2019-05-22T17:51:22.297Z,100262.50
2019-05-22T17:56:26.649Z,100259.44
2019-05-22T18:01:31.385Z,100271.77
2019-05-22T18:06:35.900Z,100276.95
2019-05-22T18:11:40.408Z,100274.92
2019-05-22T18:16:45.384Z,100281.12
2019-05-22T18:21:49.819Z,100280.22
2019-05-22T18:26:54.196Z,100291.26
2019-05-22T18:31:58.585Z,100294.60
2019-05-22T18:37:02.996Z,100294.27
2019-05-22T18:42:07.467Z,100311.14
2019-05-22T18:47:11.881Z,100311.27
2019-05-22T18:52:16.403Z,100315.53
2019-05-22T18:57:21.165Z,100317.31
2019-05-22T19:02:25.838Z,100324.50
2019-05-22T19:07:30.195Z,100324.27
2019-05-22T19:12:34.619Z,100324.92
2019-05-22T19:17:39.470Z,100331.92
2019-05-22T19:22:58.529Z,100334.02
2019-05-22T19:27:49.953Z,100332.47
2019-05-22T19:32:54.350Z,100335.14
2019-05-22T19:38:00.634Z,100339.66
2019-05-22T19:43:07.060Z,100346.91
2019-05-22T19:48:11.463Z,100344.93
2019-05-22T19:53:19.269Z,100356.14
2019-05-22T19:58:25.072Z,100358.81
2019-05-22T20:03:29.460Z,100358.61
2019-05-22T20:08:36.249Z,100355.17
2019-05-22T20:13:40.836Z,100355.99
2019-05-22T20:18:45.237Z,100360.30
2019-05-22T20:23:49.789Z,100363.16
2019-05-22T20:28:54.966Z,100361.28
2019-05-22T20:33:59.805Z,100360.50
2019-05-22T20:39:07.170Z,100361.08
2019-05-22T20:44:12.137Z,100373.34
2019-05-22T20:49:16.477Z,100372.98
2019-05-22T20:54:21.289Z,100376.79
2019-05-22T20:59:26.348Z,100381.75
2019-05-22T21:04:32.692Z,100384.48
2019-05-22T21:09:37.757Z,100385.52
2019-05-22T21:14:42.599Z,100393.03
2019-05-22T21:19:48.205Z,100393.20
2019-05-22T21:24:53.388Z,100396.78
2019-05-22T21:29:58.319Z,100395.09
2019-05-22T21:35:04.142Z,100394.52
2019-05-22T21:40:11.031Z,100393.68
2019-05-22T21:45:16.439Z,100395.50
2019-05-22T21:50:20.965Z,100394.77
2019-05-22T21:55:25.578Z,100394.77
2019-05-22T22:00:40.614Z,100393.75
2019-05-22T22:05:45.348Z,100394.61
2019-05-22T22:10:50.372Z,100395.34
2019-05-22T22:15:55.071Z,100402.55
2019-05-22T22:21:00.113Z,100406.50
2019-05-22T22:26:23.267Z,100411.70
2019-05-22T22:31:13.078Z,100408.53
2019-05-22T22:36:18.048Z,100406.13
2019-05-22T22:41:22.665Z,100412.23
2019-05-22T22:46:33.782Z,100406.36
2019-05-22T22:51:39.241Z,100413.66
2019-05-22T22:56:43.913Z,100411.08
2019-05-22T23:01:51.690Z,100421.65
2019-05-22T23:06:58.562Z,100416.91
2019-05-22T23:12:04.456Z,100425.40
2019-05-22T23:17:11.285Z,100424.42
2019-05-22T23:22:15.920Z,100426.14
2019-05-22T23:27:21.042Z,100432.81
2019-05-22T23:32:27.172Z,100434.05
2019-05-22T23:37:31.804Z,100437.48
2019-05-22T23:42:39.691Z,100446.16
2019-05-22T23:47:59.019Z,100445.70
2019-05-22T23:53:05.126Z,100444.23
2019-05-22T23:58:12.186Z,100444.80
